PWSweather.com
Personal Weather Stations
Station Observations
DW1039
Liberty & Fairfield Townships, Hamilton, OH 45011

Liberty & Fairfield TownshipsHamilton, OH 45011

Lat: 39.3933, Lon: -84.477

Elevation: 780

Station Type: Davis Vantage Pro2 (Daytime Fan Aspirated)

http://www.lfweathercenter.com/

High Low Average
Temperature 45.9°F7.7°C 40.1°F4.5°C 41.5°F5.3°C
Dew Point 40.1°F4.5°C 37.0°F2.8°C 38.3°F3.5°C
Winds 17.0 mph 27.4 kmh Calm Calm 5.0 mph WSW8.0 kmh WSW
Wind Gusts 31.0 mph49.9 kmh -- 11.0 mph17.7 kmh
Humidity 93% 80% 88%
Pressure 30.10 in1019.3 mb 29.76 in1007.8 mb -
Precipitation 0.01 in0.3 mm - -
Hour Temp Dew Point Humidity Winds Wind Gusts Pressure Precip Precip Rate Daily Precip Total
12:00 AM 45.9°F7.7°C 40.1°F4.5°C 80% 16.0 mph WSW25.7 kmh WSW 26.0 mph41.8 kmh 29.76 in1007.8 mb 0.01 in0.3 mm 0.00 in/hr0.0 mm/hr 0.01 in0.3 mm
12:10 AM 45.2°F7.3°C 39.7°F4.3°C 81% 14.0 mph SW22.5 kmh SW 31.0 mph49.9 kmh 29.77 in1008.1 mb 0.00 in0.0 mm 0.00 in/hr0.0 mm/hr 0.01 in0.3 mm
12:20 AM 44.5°F6.9°C 39.7°F4.3°C 83% 6.0 mph SW9.7 kmh SW 25.0 mph40.2 kmh 29.77 in1008.1 mb 0.00 in0.0 mm 0.00 in/hr0.0 mm/hr 0.01 in0.3 mm
12:30 AM 44.0°F6.7°C 39.8°F4.3°C 85% 12.0 mph WSW19.3 kmh WSW 26.0 mph41.8 kmh 29.77 in1008.1 mb 0.00 in0.0 mm 0.00 in/hr0.0 mm/hr 0.01 in0.3 mm
12:40 AM 43.6°F6.4°C 39.7°F4.3°C 86% 14.0 mph WSW22.5 kmh WSW 21.0 mph33.8 kmh 29.77 in1008.1 mb 0.00 in0.0 mm 0.00 in/hr0.0 mm/hr 0.01 in0.3 mm
12:50 AM 43.4°F6.3°C 39.8°F4.3°C 87% 13.0 mph W20.9 kmh W 16.0 mph25.7 kmh 29.77 in1008.1 mb 0.00 in0.0 mm 0.00 in/hr0.0 mm/hr 0.01 in0.3 mm
01:00 AM 43.4°F6.3°C 39.8°F4.3°C 87% 7.0 mph WSW11.3 kmh WSW 17.0 mph27.4 kmh 29.77 in1008.1 mb 0.00 in0.0 mm 0.00 in/hr0.0 mm/hr 0.01 in0.3 mm
01:10 AM 43.4°F6.3°C 40.1°F4.5°C 88% 5.0 mph WSW8.0 kmh WSW 14.0 mph22.5 kmh 29.78 in1008.5 mb 0.00 in0.0 mm 0.00 in/hr0.0 mm/hr 0.01 in0.3 mm
01:20 AM 43.4°F6.3°C 40.1°F4.5°C 88% 10.0 mph SW16.1 kmh SW 17.0 mph27.4 kmh 29.78 in1008.5 mb 0.00 in0.0 mm 0.00 in/hr0.0 mm/hr 0.01 in0.3 mm
01:30 AM 43.3°F6.3°C 40.0°F4.4°C 88% 7.0 mph WSW11.3 kmh WSW 17.0 mph27.4 kmh 29.78 in1008.5 mb 0.00 in0.0 mm 0.00 in/hr0.0 mm/hr 0.01 in0.3 mm
01:40 AM 43.0°F6.1°C 40.0°F4.4°C 89% 16.0 mph W25.7 kmh W 17.0 mph27.4 kmh 29.79 in1008.8 mb 0.00 in0.0 mm 0.00 in/hr0.0 mm/hr 0.01 in0.3 mm
01:50 AM 42.9°F6.1°C 39.6°F4.2°C 88% 11.0 mph WSW17.7 kmh WSW 21.0 mph33.8 kmh 29.80 in1009.1 mb 0.00 in0.0 mm 0.00 in/hr0.0 mm/hr 0.01 in0.3 mm
02:00 AM 42.6°F5.9°C 39.3°F4.1°C 88% 8.0 mph WNW12.9 kmh WNW 18.0 mph29.0 kmh 29.80 in1009.1 mb 0.00 in0.0 mm 0.00 in/hr0.0 mm/hr 0.01 in0.3 mm
02:10 AM 42.3°F5.7°C 38.7°F3.7°C 87% 10.0 mph WSW16.1 kmh WSW 21.0 mph33.8 kmh 29.81 in1009.5 mb 0.00 in0.0 mm 0.00 in/hr0.0 mm/hr 0.01 in0.3 mm
02:20 AM 42.1°F5.6°C 38.8°F3.8°C 88% 13.0 mph WSW20.9 kmh WSW 17.0 mph27.4 kmh 29.81 in1009.5 mb 0.00 in0.0 mm 0.00 in/hr0.0 mm/hr 0.01 in0.3 mm
02:30 AM 42.0°F5.6°C 38.7°F3.7°C 88% 5.0 mph WSW8.0 kmh WSW 15.0 mph24.1 kmh 29.82 in1009.8 mb 0.00 in0.0 mm 0.00 in/hr0.0 mm/hr 0.01 in0.3 mm
02:40 AM 41.9°F5.5°C 38.9°F3.8°C 89% 11.0 mph WSW17.7 kmh WSW 14.0 mph22.5 kmh 29.82 in1009.8 mb 0.00 in0.0 mm 0.00 in/hr0.0 mm/hr 0.01 in0.3 mm
02:50 AM 41.8°F5.4°C 38.8°F3.8°C 89% 9.0 mph W14.5 kmh W 17.0 mph27.4 kmh 29.83 in1010.2 mb 0.00 in0.0 mm 0.00 in/hr0.0 mm/hr 0.01 in0.3 mm
03:00 AM 41.6°F5.3°C 38.6°F3.7°C 89% 11.0 mph WSW17.7 kmh WSW 16.0 mph25.7 kmh 29.83 in1010.2 mb 0.00 in0.0 mm 0.00 in/hr0.0 mm/hr 0.01 in0.3 mm
03:10 AM 41.5°F5.3°C 38.5°F3.6°C 89% 6.0 mph WSW9.7 kmh WSW 16.0 mph25.7 kmh 29.84 in1010.5 mb 0.00 in0.0 mm 0.00 in/hr0.0 mm/hr 0.01 in0.3 mm
03:20 AM 41.4°F5.2°C 38.4°F3.6°C 89% 14.0 mph W22.5 kmh W 18.0 mph29.0 kmh 29.84 in1010.5 mb 0.00 in0.0 mm 0.00 in/hr0.0 mm/hr 0.01 in0.3 mm
03:30 AM 41.4°F5.2°C 38.4°F3.6°C 89% 17.0 mph SW27.4 kmh SW 17.0 mph27.4 kmh 29.85 in1010.8 mb 0.00 in0.0 mm 0.00 in/hr0.0 mm/hr 0.01 in0.3 mm
03:40 AM 41.3°F5.2°C 38.3°F3.5°C 89% 11.0 mph WSW17.7 kmh WSW 22.0 mph35.4 kmh 29.85 in1010.8 mb 0.00 in0.0 mm 0.00 in/hr0.0 mm/hr 0.01 in0.3 mm
03:50 AM 41.2°F5.1°C 38.2°F3.4°C 89% 13.0 mph WSW20.9 kmh WSW 23.0 mph37.0 kmh 29.86 in1011.2 mb 0.00 in0.0 mm 0.00 in/hr0.0 mm/hr 0.01 in0.3 mm
04:01 AM 40.9°F4.9°C 37.9°F3.3°C 89% 9.0 mph W14.5 kmh W 21.0 mph33.8 kmh 29.87 in1011.5 mb 0.00 in0.0 mm 0.00 in/hr0.0 mm/hr 0.01 in0.3 mm
04:10 AM 40.8°F4.9°C 38.1°F3.4°C 90% 4.0 mph SW6.4 kmh SW 14.0 mph22.5 kmh 29.87 in1011.5 mb 0.00 in0.0 mm 0.00 in/hr0.0 mm/hr 0.01 in0.3 mm
04:20 AM 40.8°F4.9°C 38.1°F3.4°C 90% 7.0 mph W11.3 kmh W 11.0 mph17.7 kmh 29.88 in1011.9 mb 0.00 in0.0 mm 0.00 in/hr0.0 mm/hr 0.01 in0.3 mm
04:30 AM 40.8°F4.9°C 38.1°F3.4°C 90% 8.0 mph W12.9 kmh W 15.0 mph24.1 kmh 29.88 in1011.9 mb 0.00 in0.0 mm 0.00 in/hr0.0 mm/hr 0.01 in0.3 mm
04:40 AM 40.7°F4.8°C 38.0°F3.3°C 90% 15.0 mph W24.1 kmh W 16.0 mph25.7 kmh 29.89 in1012.2 mb 0.00 in0.0 mm 0.00 in/hr0.0 mm/hr 0.01 in0.3 mm
04:50 AM 40.7°F4.8°C 38.0°F3.3°C 90% 10.0 mph W16.1 kmh W 16.0 mph25.7 kmh 29.89 in1012.2 mb 0.00 in0.0 mm 0.00 in/hr0.0 mm/hr 0.01 in0.3 mm
05:00 AM 40.6°F4.8°C 37.9°F3.3°C 90% 6.0 mph WSW9.7 kmh WSW 14.0 mph22.5 kmh 29.89 in1012.2 mb 0.00 in0.0 mm 0.00 in/hr0.0 mm/hr 0.01 in0.3 mm
05:10 AM 40.5°F4.7°C 38.1°F3.4°C 91% 11.0 mph W17.7 kmh W 14.0 mph22.5 kmh 29.89 in1012.2 mb 0.00 in0.0 mm 0.00 in/hr0.0 mm/hr 0.01 in0.3 mm
05:20 AM 40.5°F4.7°C 37.8°F3.2°C 90% 7.0 mph WSW11.3 kmh WSW 13.0 mph20.9 kmh 29.90 in1012.5 mb 0.00 in0.0 mm 0.00 in/hr0.0 mm/hr 0.01 in0.3 mm
05:30 AM 40.6°F4.8°C 38.2°F3.4°C 91% 6.0 mph WSW9.7 kmh WSW 14.0 mph22.5 kmh 29.90 in1012.5 mb 0.00 in0.0 mm 0.00 in/hr0.0 mm/hr 0.01 in0.3 mm
05:40 AM 40.5°F4.7°C 38.1°F3.4°C 91% 10.0 mph W16.1 kmh W 14.0 mph22.5 kmh 29.91 in1012.9 mb 0.00 in0.0 mm 0.00 in/hr0.0 mm/hr 0.01 in0.3 mm
05:50 AM 40.5°F4.7°C 38.1°F3.4°C 91% 6.0 mph WSW9.7 kmh WSW 13.0 mph20.9 kmh 29.92 in1013.2 mb 0.00 in0.0 mm 0.00 in/hr0.0 mm/hr 0.01 in0.3 mm
06:01 AM 40.5°F4.7°C 38.1°F3.4°C 91% 5.0 mph WSW8.0 kmh WSW 16.0 mph25.7 kmh 29.92 in1013.2 mb 0.00 in0.0 mm 0.00 in/hr0.0 mm/hr 0.01 in0.3 mm
06:10 AM 40.4°F4.7°C 38.0°F3.3°C 91% 9.0 mph SW14.5 kmh SW 15.0 mph24.1 kmh 29.93 in1013.5 mb 0.00 in0.0 mm 0.00 in/hr0.0 mm/hr 0.01 in0.3 mm
06:20 AM 40.4°F4.7°C 38.0°F3.3°C 91% 6.0 mph W9.7 kmh W 17.0 mph27.4 kmh 29.94 in1013.9 mb 0.00 in0.0 mm 0.00 in/hr0.0 mm/hr 0.01 in0.3 mm
06:30 AM 40.3°F4.6°C 37.9°F3.3°C 91% 13.0 mph W20.9 kmh W 16.0 mph25.7 kmh 29.94 in1013.9 mb 0.00 in0.0 mm 0.00 in/hr0.0 mm/hr 0.01 in0.3 mm
06:40 AM 40.2°F4.6°C 38.1°F3.4°C 92% 9.0 mph WSW14.5 kmh WSW 16.0 mph25.7 kmh 29.95 in1014.2 mb 0.00 in0.0 mm 0.00 in/hr0.0 mm/hr 0.01 in0.3 mm
06:50 AM 40.1°F4.5°C 38.0°F3.3°C 92% 7.0 mph WSW11.3 kmh WSW 14.0 mph22.5 kmh 29.95 in1014.2 mb 0.00 in0.0 mm 0.00 in/hr0.0 mm/hr 0.01 in0.3 mm
07:00 AM 40.1°F4.5°C 38.0°F3.3°C 92% 7.0 mph WSW11.3 kmh WSW 11.0 mph17.7 kmh 29.96 in1014.6 mb 0.00 in0.0 mm 0.00 in/hr0.0 mm/hr 0.01 in0.3 mm
07:10 AM 40.1°F4.5°C 38.0°F3.3°C 92% 8.0 mph W12.9 kmh W 10.0 mph16.1 kmh 29.97 in1014.9 mb 0.00 in0.0 mm 0.00 in/hr0.0 mm/hr 0.01 in0.3 mm
07:20 AM 40.1°F4.5°C 38.0°F3.3°C 92% 4.0 mph SW6.4 kmh SW 10.0 mph16.1 kmh 29.98 in1015.2 mb 0.00 in0.0 mm 0.00 in/hr0.0 mm/hr 0.01 in0.3 mm
07:30 AM 40.2°F4.6°C 38.1°F3.4°C 92% 6.0 mph WSW9.7 kmh WSW 14.0 mph22.5 kmh 29.98 in1015.2 mb 0.00 in0.0 mm 0.00 in/hr0.0 mm/hr 0.01 in0.3 mm
07:40 AM 40.3°F4.6°C 38.2°F3.4°C 92% 4.0 mph WSW6.4 kmh WSW 12.0 mph19.3 kmh 29.99 in1015.6 mb 0.00 in0.0 mm 0.00 in/hr0.0 mm/hr 0.01 in0.3 mm
07:50 AM 40.3°F4.6°C 38.2°F3.4°C 92% 11.0 mph W17.7 kmh W 13.0 mph20.9 kmh 29.99 in1015.6 mb 0.00 in0.0 mm 0.00 in/hr0.0 mm/hr 0.01 in0.3 mm
08:00 AM 40.4°F4.7°C 38.3°F3.5°C 92% 7.0 mph W11.3 kmh W 16.0 mph25.7 kmh 30.00 in1015.9 mb 0.00 in0.0 mm 0.00 in/hr0.0 mm/hr 0.01 in0.3 mm
08:10 AM 40.4°F4.7°C 38.3°F3.5°C 92% 5.0 mph W8.0 kmh W 11.0 mph17.7 kmh 30.01 in1016.3 mb 0.00 in0.0 mm 0.00 in/hr0.0 mm/hr 0.01 in0.3 mm
08:20 AM 40.4°F4.7°C 38.3°F3.5°C 92% 3.0 mph WSW4.8 kmh WSW 14.0 mph22.5 kmh 30.01 in1016.3 mb 0.00 in0.0 mm 0.00 in/hr0.0 mm/hr 0.01 in0.3 mm
08:30 AM 40.5°F4.7°C 38.4°F3.6°C 92% 3.0 mph WSW4.8 kmh WSW 10.0 mph16.1 kmh 30.01 in1016.3 mb 0.00 in0.0 mm 0.00 in/hr0.0 mm/hr 0.01 in0.3 mm
08:40 AM 40.5°F4.7°C 38.4°F3.6°C 92% 2.0 mph WSW3.2 kmh WSW 7.0 mph11.3 kmh 30.02 in1016.6 mb 0.00 in0.0 mm 0.00 in/hr0.0 mm/hr 0.01 in0.3 mm
08:50 AM 40.6°F4.8°C 38.5°F3.6°C 92% 3.0 mph WSW4.8 kmh WSW 5.0 mph8.0 kmh 30.03 in1016.9 mb 0.00 in0.0 mm 0.00 in/hr0.0 mm/hr 0.01 in0.3 mm
09:00 AM 40.5°F4.7°C 38.4°F3.6°C 92% 3.0 mph WSW4.8 kmh WSW 6.0 mph9.7 kmh 30.04 in1017.3 mb 0.00 in0.0 mm 0.00 in/hr0.0 mm/hr 0.01 in0.3 mm
09:10 AM 40.6°F4.8°C 38.5°F3.6°C 92% 2.0 mph WSW3.2 kmh WSW 7.0 mph11.3 kmh 30.05 in1017.6 mb 0.00 in0.0 mm 0.00 in/hr0.0 mm/hr 0.01 in0.3 mm
09:20 AM 40.5°F4.7°C 38.4°F3.6°C 92% 3.0 mph WSW4.8 kmh WSW 9.0 mph14.5 kmh 30.05 in1017.6 mb 0.00 in0.0 mm 0.00 in/hr0.0 mm/hr 0.01 in0.3 mm
09:30 AM 40.4°F4.7°C 38.3°F3.5°C 92% 5.0 mph WSW8.0 kmh WSW 10.0 mph16.1 kmh 30.06 in1017.9 mb 0.00 in0.0 mm 0.00 in/hr0.0 mm/hr 0.01 in0.3 mm
09:40 AM 40.4°F4.7°C 38.5°F3.6°C 93% 2.0 mph W3.2 kmh W 6.0 mph9.7 kmh 30.06 in1017.9 mb 0.00 in0.0 mm 0.00 in/hr0.0 mm/hr 0.01 in0.3 mm
09:50 AM 40.4°F4.7°C 38.5°F3.6°C 93% 3.0 mph SW4.8 kmh SW 7.0 mph11.3 kmh 30.07 in1018.3 mb 0.00 in0.0 mm 0.00 in/hr0.0 mm/hr 0.01 in0.3 mm
10:00 AM 40.4°F4.7°C 38.5°F3.6°C 93% 3.0 mph W4.8 kmh W 11.0 mph17.7 kmh 30.08 in1018.6 mb 0.00 in0.0 mm 0.00 in/hr0.0 mm/hr 0.01 in0.3 mm
10:10 AM 40.4°F4.7°C 38.5°F3.6°C 93% 3.0 mph W4.8 kmh W 8.0 mph12.9 kmh 30.09 in1019.0 mb 0.00 in0.0 mm 0.00 in/hr0.0 mm/hr 0.01 in0.3 mm
10:20 AM 40.4°F4.7°C 38.5°F3.6°C 93% 2.0 mph WSW3.2 kmh WSW 10.0 mph16.1 kmh 30.09 in1019.0 mb 0.00 in0.0 mm 0.00 in/hr0.0 mm/hr 0.01 in0.3 mm
10:30 AM 40.7°F4.8°C 38.6°F3.7°C 92% 3.0 mph W4.8 kmh W 10.0 mph16.1 kmh 30.09 in1019.0 mb 0.00 in0.0 mm 0.00 in/hr0.0 mm/hr 0.01 in0.3 mm
10:40 AM 41.4°F5.2°C 39.3°F4.1°C 92% 5.0 mph WSW8.0 kmh WSW 9.0 mph14.5 kmh 30.09 in1019.0 mb 0.00 in0.0 mm 0.00 in/hr0.0 mm/hr 0.01 in0.3 mm
10:50 AM 41.5°F5.3°C 38.8°F3.8°C 90% 6.0 mph WSW9.7 kmh WSW 11.0 mph17.7 kmh 30.10 in1019.3 mb 0.00 in0.0 mm 0.00 in/hr0.0 mm/hr 0.01 in0.3 mm
11:00 AM 41.8°F5.4°C 39.1°F3.9°C 90% 5.0 mph WSW8.0 kmh WSW 9.0 mph14.5 kmh 30.10 in1019.3 mb 0.00 in0.0 mm 0.00 in/hr0.0 mm/hr 0.01 in0.3 mm
11:10 AM 42.1°F5.6°C 39.4°F4.1°C 90% 5.0 mph WSW8.0 kmh WSW 7.0 mph11.3 kmh 30.10 in1019.3 mb 0.00 in0.0 mm 0.00 in/hr0.0 mm/hr 0.01 in0.3 mm
11:20 AM 42.2°F5.7°C 39.2°F4.0°C 89% 5.0 mph WSW8.0 kmh WSW 11.0 mph17.7 kmh 30.10 in1019.3 mb 0.00 in0.0 mm 0.00 in/hr0.0 mm/hr 0.01 in0.3 mm
11:30 AM 42.2°F5.7°C 39.2°F4.0°C 89% 4.0 mph W6.4 kmh W 11.0 mph17.7 kmh 30.10 in1019.3 mb 0.00 in0.0 mm 0.00 in/hr0.0 mm/hr 0.01 in0.3 mm
11:40 AM 42.3°F5.7°C 39.3°F4.1°C 89% 2.0 mph NW3.2 kmh NW 8.0 mph12.9 kmh 30.10 in1019.3 mb 0.00 in0.0 mm 0.00 in/hr0.0 mm/hr 0.01 in0.3 mm
11:50 AM 41.8°F5.4°C 38.2°F3.4°C 87% 3.0 mph NW4.8 kmh NW 10.0 mph16.1 kmh 30.10 in1019.3 mb 0.00 in0.0 mm 0.00 in/hr0.0 mm/hr 0.01 in0.3 mm
12:00 PM 41.5°F5.3°C 37.9°F3.3°C 87% 2.0 mph NW3.2 kmh NW 7.0 mph11.3 kmh 30.10 in1019.3 mb 0.00 in0.0 mm 0.00 in/hr0.0 mm/hr 0.01 in0.3 mm
12:10 PM 41.5°F5.3°C 37.6°F3.1°C 86% 2.0 mph W3.2 kmh W 7.0 mph11.3 kmh 30.09 in1019.0 mb 0.00 in0.0 mm 0.00 in/hr0.0 mm/hr 0.01 in0.3 mm
12:20 PM 41.5°F5.3°C 37.6°F3.1°C 86% 2.0 mph W3.2 kmh W 7.0 mph11.3 kmh 30.09 in1019.0 mb 0.00 in0.0 mm 0.00 in/hr0.0 mm/hr 0.01 in0.3 mm
12:30 PM 41.7°F5.4°C 38.1°F3.4°C 87% 5.0 mph WNW8.0 kmh WNW 7.0 mph11.3 kmh 30.09 in1019.0 mb 0.00 in0.0 mm 0.00 in/hr0.0 mm/hr 0.01 in0.3 mm
12:40 PM 41.8°F5.4°C 37.6°F3.1°C 85% 3.0 mph W4.8 kmh W 9.0 mph14.5 kmh 30.08 in1018.6 mb 0.00 in0.0 mm 0.00 in/hr0.0 mm/hr 0.01 in0.3 mm
12:50 PM 41.8°F5.4°C 37.6°F3.1°C 85% 3.0 mph W4.8 kmh W 8.0 mph12.9 kmh 30.09 in1019.0 mb 0.00 in0.0 mm 0.00 in/hr0.0 mm/hr 0.01 in0.3 mm
01:00 PM 41.8°F5.4°C 37.9°F3.3°C 86% 3.0 mph W4.8 kmh W 5.0 mph8.0 kmh 30.09 in1019.0 mb 0.00 in0.0 mm 0.00 in/hr0.0 mm/hr 0.01 in0.3 mm
01:10 PM 41.6°F5.3°C 37.4°F3.0°C 85% 4.0 mph WSW6.4 kmh WSW 7.0 mph11.3 kmh 30.09 in1019.0 mb 0.00 in0.0 mm 0.00 in/hr0.0 mm/hr 0.01 in0.3 mm
01:20 PM 41.6°F5.3°C 37.7°F3.2°C 86% 3.0 mph SW4.8 kmh SW 9.0 mph14.5 kmh 30.09 in1019.0 mb 0.00 in0.0 mm 0.00 in/hr0.0 mm/hr 0.01 in0.3 mm
01:30 PM 41.5°F5.3°C 37.6°F3.1°C 86% 3.0 mph WSW4.8 kmh WSW 9.0 mph14.5 kmh 30.09 in1019.0 mb 0.00 in0.0 mm 0.00 in/hr0.0 mm/hr 0.01 in0.3 mm
01:40 PM 41.5°F5.3°C 37.9°F3.3°C 87% 7.0 mph WSW11.3 kmh WSW 7.0 mph11.3 kmh 30.10 in1019.3 mb 0.00 in0.0 mm 0.00 in/hr0.0 mm/hr 0.01 in0.3 mm
01:50 PM 41.2°F5.1°C 37.6°F3.1°C 87% 5.0 mph SW8.0 kmh SW 9.0 mph14.5 kmh 30.09 in1019.0 mb 0.00 in0.0 mm 0.00 in/hr0.0 mm/hr 0.01 in0.3 mm
02:00 PM 41.1°F5.1°C 37.8°F3.2°C 88% 5.0 mph WSW8.0 kmh WSW 6.0 mph9.7 kmh 30.09 in1019.0 mb 0.00 in0.0 mm 0.00 in/hr0.0 mm/hr 0.01 in0.3 mm
02:10 PM 41.1°F5.1°C 37.2°F2.9°C 86% 5.0 mph SW8.0 kmh SW 7.0 mph11.3 kmh 30.08 in1018.6 mb 0.00 in0.0 mm 0.00 in/hr0.0 mm/hr 0.01 in0.3 mm
02:20 PM 41.4°F5.2°C 38.1°F3.4°C 88% 1.0 mph WSW1.6 kmh WSW 5.0 mph8.0 kmh 30.08 in1018.6 mb 0.00 in0.0 mm 0.00 in/hr0.0 mm/hr 0.01 in0.3 mm
02:30 PM 41.4°F5.2°C 37.8°F3.2°C 87% Calm Calm 5.0 mph8.0 kmh 30.08 in1018.6 mb 0.00 in0.0 mm 0.00 in/hr0.0 mm/hr 0.01 in0.3 mm
02:40 PM 41.5°F5.3°C 37.9°F3.3°C 87% Calm Calm 4.0 mph6.4 kmh 30.08 in1018.6 mb 0.00 in0.0 mm 0.00 in/hr0.0 mm/hr 0.01 in0.3 mm
02:50 PM 41.5°F5.3°C 37.6°F3.1°C 86% Calm Calm 3.0 mph4.8 kmh 30.07 in1018.3 mb 0.00 in0.0 mm 0.00 in/hr0.0 mm/hr 0.01 in0.3 mm
03:00 PM 41.7°F5.4°C 37.8°F3.2°C 86% 1.0 mph WSW1.6 kmh WSW 3.0 mph4.8 kmh 30.08 in1018.6 mb 0.00 in0.0 mm 0.00 in/hr0.0 mm/hr 0.01 in0.3 mm
03:10 PM 41.5°F5.3°C 37.3°F2.9°C 85% Calm Calm 3.0 mph4.8 kmh 30.07 in1018.3 mb 0.00 in0.0 mm 0.00 in/hr0.0 mm/hr 0.01 in0.3 mm
03:20 PM 41.7°F5.4°C 37.8°F3.2°C 86% Calm Calm 4.0 mph6.4 kmh 30.07 in1018.3 mb 0.00 in0.0 mm 0.00 in/hr0.0 mm/hr 0.01 in0.3 mm
03:30 PM 41.8°F5.4°C 37.9°F3.3°C 86% Calm Calm -- 30.08 in1018.6 mb 0.00 in0.0 mm 0.00 in/hr0.0 mm/hr 0.01 in0.3 mm
03:40 PM 41.7°F5.4°C 37.8°F3.2°C 86% 1.0 mph SE1.6 kmh SE 4.0 mph6.4 kmh 30.07 in1018.3 mb 0.00 in0.0 mm 0.00 in/hr0.0 mm/hr 0.01 in0.3 mm
03:50 PM 41.8°F5.4°C 37.9°F3.3°C 86% 2.0 mph S3.2 kmh S 5.0 mph8.0 kmh 30.09 in1019.0 mb 0.00 in0.0 mm 0.00 in/hr0.0 mm/hr 0.01 in0.3 mm
04:00 PM 41.7°F5.4°C 37.8°F3.2°C 86% Calm Calm 5.0 mph8.0 kmh 30.09 in1019.0 mb 0.00 in0.0 mm 0.00 in/hr0.0 mm/hr 0.01 in0.3 mm
04:10 PM 41.7°F5.4°C 38.1°F3.4°C 87% 5.0 mph S8.0 kmh S 10.0 mph16.1 kmh 30.08 in1018.6 mb 0.00 in0.0 mm 0.00 in/hr0.0 mm/hr 0.01 in0.3 mm
04:20 PM 41.8°F5.4°C 37.9°F3.3°C 86% Calm Calm 9.0 mph14.5 kmh 30.08 in1018.6 mb 0.00 in0.0 mm 0.00 in/hr0.0 mm/hr 0.01 in0.3 mm
04:30 PM 41.9°F5.5°C 38.3°F3.5°C 87% Calm Calm 4.0 mph6.4 kmh 30.08 in1018.6 mb 0.00 in0.0 mm 0.00 in/hr0.0 mm/hr 0.01 in0.3 mm
04:40 PM 41.9°F5.5°C 38.0°F3.3°C 86% 3.0 mph SSW4.8 kmh SSW 7.0 mph11.3 kmh 30.09 in1019.0 mb 0.00 in0.0 mm 0.00 in/hr0.0 mm/hr 0.01 in0.3 mm
04:50 PM 41.9°F5.5°C 37.7°F3.2°C 85% Calm Calm 9.0 mph14.5 kmh 30.09 in1019.0 mb 0.00 in0.0 mm 0.00 in/hr0.0 mm/hr 0.01 in0.3 mm
05:00 PM 42.0°F5.6°C 37.8°F3.2°C 85% 2.0 mph S3.2 kmh S 7.0 mph11.3 kmh 30.09 in1019.0 mb 0.00 in0.0 mm 0.00 in/hr0.0 mm/hr 0.01 in0.3 mm
05:10 PM 42.0°F5.6°C 37.8°F3.2°C 85% 2.0 mph S3.2 kmh S 6.0 mph9.7 kmh 30.09 in1019.0 mb 0.00 in0.0 mm 0.00 in/hr0.0 mm/hr 0.01 in0.3 mm
05:20 PM 41.8°F5.4°C 37.9°F3.3°C 86% Calm Calm 4.0 mph6.4 kmh 30.09 in1019.0 mb 0.00 in0.0 mm 0.00 in/hr0.0 mm/hr 0.01 in0.3 mm
05:30 PM 41.9°F5.5°C 38.0°F3.3°C 86% Calm Calm 3.0 mph4.8 kmh 30.09 in1019.0 mb 0.00 in0.0 mm 0.00 in/hr0.0 mm/hr 0.01 in0.3 mm
05:40 PM 42.2°F5.7°C 38.3°F3.5°C 86% 3.0 mph SSW4.8 kmh SSW 6.0 mph9.7 kmh 30.10 in1019.3 mb 0.00 in0.0 mm 0.00 in/hr0.0 mm/hr 0.01 in0.3 mm
05:50 PM 42.1°F5.6°C 38.2°F3.4°C 86% 3.0 mph S4.8 kmh S 5.0 mph8.0 kmh 30.10 in1019.3 mb 0.00 in0.0 mm 0.00 in/hr0.0 mm/hr 0.01 in0.3 mm
06:01 PM 42.2°F5.7°C 38.0°F3.3°C 85% 1.0 mph S1.6 kmh S 11.0 mph17.7 kmh 30.10 in1019.3 mb 0.00 in0.0 mm 0.00 in/hr0.0 mm/hr 0.01 in0.3 mm
06:10 PM 42.3°F5.7°C 38.1°F3.4°C 85% Calm Calm 9.0 mph14.5 kmh 30.09 in1019.0 mb 0.00 in0.0 mm 0.00 in/hr0.0 mm/hr 0.01 in0.3 mm
06:20 PM 41.8°F5.4°C 37.6°F3.1°C 85% Calm Calm 5.0 mph8.0 kmh 30.10 in1019.3 mb 0.00 in0.0 mm 0.00 in/hr0.0 mm/hr 0.01 in0.3 mm
06:30 PM 40.9°F4.9°C 37.0°F2.8°C 86% Calm Calm 3.0 mph4.8 kmh 30.10 in1019.3 mb 0.00 in0.0 mm 0.00 in/hr0.0 mm/hr 0.01 in0.3 mm
06:40 PM 39.3°F4.1°C 36.1°F2.3°C 88% Calm Calm 1.0 mph1.6 kmh 30.09 in1019.0 mb 0.00 in0.0 mm 0.00 in/hr0.0 mm/hr 0.01 in0.3 mm
06:50 PM 38.4°F3.6°C 35.7°F2.1°C 90% Calm Calm -- 30.10 in1019.3 mb 0.00 in0.0 mm 0.00 in/hr0.0 mm/hr 0.01 in0.3 mm